sensor_id;sensor_type;location;lat;lon;timestamp;P1;durP1;ratioP1;P2;durP2;ratioP2
12774;SDS011;6451;42.630;23.382;2022-07-19T00:02:21;3.70;;;2.70;;
12774;SDS011;6451;42.630;23.382;2022-07-19T00:04:47;5.20;;;3.17;;
12774;SDS011;6451;42.630;23.382;2022-07-19T00:07:14;3.33;;;2.60;;
12774;SDS011;6451;42.630;23.382;2022-07-19T00:09:41;4.27;;;2.90;;
12774;SDS011;6451;42.630;23.382;2022-07-19T00:12:08;3.37;;;2.70;;
12774;SDS011;6451;42.630;23.382;2022-07-19T00:14:37;6.47;;;3.00;;
12774;SDS011;6451;42.630;23.382;2022-07-19T00:17:04;4.97;;;2.67;;
12774;SDS011;6451;42.630;23.382;2022-07-19T00:19:32;4.67;;;3.10;;
12774;SDS011;6451;42.630;23.382;2022-07-19T00:21:59;5.77;;;2.80;;
12774;SDS011;6451;42.630;23.382;2022-07-19T00:24:26;3.57;;;2.80;;
12774;SDS011;6451;42.630;23.382;2022-07-19T00:26:53;3.80;;;2.80;;
12774;SDS011;6451;42.630;23.382;2022-07-19T00:29:20;6.03;;;2.80;;
12774;SDS011;6451;42.630;23.382;2022-07-19T00:31:47;3.93;;;2.70;;
12774;SDS011;6451;42.630;23.382;2022-07-19T00:34:14;4.47;;;3.10;;
12774;SDS011;6451;42.630;23.382;2022-07-19T00:36:43;4.00;;;2.70;;
12774;SDS011;6451;42.630;23.382;2022-07-19T00:39:10;3.70;;;3.03;;
12774;SDS011;6451;42.630;23.382;2022-07-19T00:41:40;4.43;;;2.87;;
12774;SDS011;6451;42.630;23.382;2022-07-19T00:44:09;4.20;;;2.70;;
12774;SDS011;6451;42.630;23.382;2022-07-19T00:46:37;3.70;;;2.70;;
12774;SDS011;6451;42.630;23.382;2022-07-19T00:49:04;3.07;;;2.77;;
12774;SDS011;6451;42.630;23.382;2022-07-19T00:51:33;5.83;;;2.70;;
12774;SDS011;6451;42.630;23.382;2022-07-19T00:54:03;3.00;;;2.80;;
12774;SDS011;6451;42.630;23.382;2022-07-19T00:56:31;3.23;;;2.60;;
12774;SDS011;6451;42.630;23.382;2022-07-19T00:59:00;4.13;;;2.90;;
12774;SDS011;6451;42.630;23.382;2022-07-19T01:01:29;3.43;;;2.97;;
12774;SDS011;6451;42.630;23.382;2022-07-19T01:03:56;3.73;;;3.30;;
12774;SDS011;6451;42.630;23.382;2022-07-19T01:06:23;5.60;;;3.00;;
12774;SDS011;6451;42.630;23.382;2022-07-19T01:08:52;3.97;;;3.00;;
12774;SDS011;6451;42.630;23.382;2022-07-19T01:11:20;6.37;;;3.20;;
12774;SDS011;6451;42.630;23.382;2022-07-19T01:13:47;4.53;;;3.27;;
12774;SDS011;6451;42.630;23.382;2022-07-19T01:16:14;3.80;;;3.30;;
12774;SDS011;6451;42.630;23.382;2022-07-19T01:18:41;3.60;;;3.07;;
12774;SDS011;6451;42.630;23.382;2022-07-19T01:21:13;4.47;;;3.03;;
12774;SDS011;6451;42.630;23.382;2022-07-19T01:23:44;4.83;;;3.13;;
12774;SDS011;6451;42.630;23.382;2022-07-19T01:26:11;3.27;;;2.73;;
12774;SDS011;6451;42.630;23.382;2022-07-19T01:28:38;4.13;;;3.00;;
12774;SDS011;6451;42.630;23.382;2022-07-19T01:31:04;3.50;;;3.20;;
12774;SDS011;6451;42.630;23.382;2022-07-19T01:33:31;4.13;;;2.67;;
12774;SDS011;6451;42.630;23.382;2022-07-19T01:35:59;3.43;;;2.97;;
12774;SDS011;6451;42.630;23.382;2022-07-19T01:38:27;3.50;;;3.00;;
12774;SDS011;6451;42.630;23.382;2022-07-19T01:40:54;3.70;;;2.80;;
12774;SDS011;6451;42.630;23.382;2022-07-19T01:43:24;3.97;;;3.10;;
12774;SDS011;6451;42.630;23.382;2022-07-19T01:45:51;3.57;;;3.17;;
12774;SDS011;6451;42.630;23.382;2022-07-19T01:48:18;5.23;;;3.13;;
12774;SDS011;6451;42.630;23.382;2022-07-19T01:50:45;3.00;;;2.80;;
12774;SDS011;6451;42.630;23.382;2022-07-19T01:53:12;3.40;;;3.10;;
12774;SDS011;6451;42.630;23.382;2022-07-19T01:55:40;6.20;;;3.40;;
12774;SDS011;6451;42.630;23.382;2022-07-19T01:58:08;6.27;;;2.83;;
12774;SDS011;6451;42.630;23.382;2022-07-19T02:00:35;4.47;;;3.00;;
12774;SDS011;6451;42.630;23.382;2022-07-19T02:03:02;4.63;;;2.90;;
12774;SDS011;6451;42.630;23.382;2022-07-19T02:05:29;4.03;;;3.40;;
12774;SDS011;6451;42.630;23.382;2022-07-19T02:07:56;4.03;;;3.00;;
12774;SDS011;6451;42.630;23.382;2022-07-19T02:10:22;4.43;;;3.10;;
12774;SDS011;6451;42.630;23.382;2022-07-19T02:12:51;3.43;;;3.10;;
12774;SDS011;6451;42.630;23.382;2022-07-19T02:15:17;3.53;;;2.80;;
12774;SDS011;6451;42.630;23.382;2022-07-19T02:17:44;3.73;;;3.10;;
12774;SDS011;6451;42.630;23.382;2022-07-19T02:20:11;3.90;;;3.00;;
12774;SDS011;6451;42.630;23.382;2022-07-19T02:22:39;5.00;;;2.87;;
12774;SDS011;6451;42.630;23.382;2022-07-19T02:25:06;4.10;;;2.80;;
12774;SDS011;6451;42.630;23.382;2022-07-19T02:27:33;3.33;;;2.70;;
12774;SDS011;6451;42.630;23.382;2022-07-19T02:30:02;4.70;;;2.77;;
12774;SDS011;6451;42.630;23.382;2022-07-19T02:32:30;4.53;;;3.00;;
12774;SDS011;6451;42.630;23.382;2022-07-19T02:34:57;4.33;;;2.80;;
12774;SDS011;6451;42.630;23.382;2022-07-19T02:37:24;4.73;;;3.13;;
12774;SDS011;6451;42.630;23.382;2022-07-19T02:39:51;3.07;;;2.77;;
12774;SDS011;6451;42.630;23.382;2022-07-19T02:42:18;3.03;;;2.77;;
12774;SDS011;6451;42.630;23.382;2022-07-19T02:44:45;5.30;;;2.53;;
12774;SDS011;6451;42.630;23.382;2022-07-19T02:47:13;6.13;;;2.60;;
12774;SDS011;6451;42.630;23.382;2022-07-19T02:49:40;3.33;;;2.83;;
12774;SDS011;6451;42.630;23.382;2022-07-19T02:52:06;3.27;;;2.73;;
12774;SDS011;6451;42.630;23.382;2022-07-19T02:54:33;4.60;;;2.80;;
12774;SDS011;6451;42.630;23.382;2022-07-19T02:57:00;2.80;;;2.60;;
12774;SDS011;6451;42.630;23.382;2022-07-19T02:59:27;4.20;;;3.00;;
12774;SDS011;6451;42.630;23.382;2022-07-19T03:01:54;4.67;;;2.90;;
12774;SDS011;6451;42.630;23.382;2022-07-19T03:04:22;5.70;;;3.23;;
12774;SDS011;6451;42.630;23.382;2022-07-19T03:06:49;5.73;;;2.97;;
12774;SDS011;6451;42.630;23.382;2022-07-19T03:09:16;3.13;;;2.67;;
12774;SDS011;6451;42.630;23.382;2022-07-19T03:11:42;4.43;;;2.87;;
12774;SDS011;6451;42.630;23.382;2022-07-19T03:14:09;3.20;;;2.90;;
12774;SDS011;6451;42.630;23.382;2022-07-19T03:16:36;4.80;;;2.90;;
12774;SDS011;6451;42.630;23.382;2022-07-19T03:19:03;3.73;;;2.90;;
12774;SDS011;6451;42.630;23.382;2022-07-19T03:21:31;6.63;;;3.00;;
12774;SDS011;6451;42.630;23.382;2022-07-19T03:23:58;4.00;;;2.97;;
12774;SDS011;6451;42.630;23.382;2022-07-19T03:26:25;4.23;;;2.97;;
12774;SDS011;6451;42.630;23.382;2022-07-19T03:28:52;4.30;;;3.30;;
12774;SDS011;6451;42.630;23.382;2022-07-19T03:31:19;6.10;;;3.10;;
12774;SDS011;6451;42.630;23.382;2022-07-19T03:33:46;3.23;;;2.93;;
12774;SDS011;6451;42.630;23.382;2022-07-19T03:36:13;6.10;;;3.00;;
12774;SDS011;6451;42.630;23.382;2022-07-19T03:38:41;5.60;;;3.00;;
12774;SDS011;6451;42.630;23.382;2022-07-19T03:41:08;3.13;;;2.80;;
12774;SDS011;6451;42.630;23.382;2022-07-19T03:43:36;3.07;;;2.77;;
12774;SDS011;6451;42.630;23.382;2022-07-19T03:46:04;4.00;;;2.87;;
12774;SDS011;6451;42.630;23.382;2022-07-19T03:48:31;5.27;;;3.03;;
12774;SDS011;6451;42.630;23.382;2022-07-19T03:50:58;4.53;;;3.00;;
12774;SDS011;6451;42.630;23.382;2022-07-19T03:53:25;4.30;;;2.70;;
12774;SDS011;6451;42.630;23.382;2022-07-19T03:55:53;4.57;;;2.90;;
12774;SDS011;6451;42.630;23.382;2022-07-19T03:58:20;3.90;;;2.90;;
12774;SDS011;6451;42.630;23.382;2022-07-19T04:00:47;2.90;;;2.50;;
12774;SDS011;6451;42.630;23.382;2022-07-19T04:03:14;3.80;;;2.10;;
12774;SDS011;6451;42.630;23.382;2022-07-19T04:05:41;4.43;;;2.53;;
12774;SDS011;6451;42.630;23.382;2022-07-19T04:08:08;4.40;;;2.80;;
12774;SDS011;6451;42.630;23.382;2022-07-19T04:10:35;2.77;;;2.50;;
12774;SDS011;6451;42.630;23.382;2022-07-19T04:13:03;2.93;;;2.50;;
12774;SDS011;6451;42.630;23.382;2022-07-19T04:15:30;2.67;;;2.40;;
12774;SDS011;6451;42.630;23.382;2022-07-19T04:17:57;4.27;;;2.50;;
12774;SDS011;6451;42.630;23.382;2022-07-19T04:20:24;4.17;;;3.10;;
12774;SDS011;6451;42.630;23.382;2022-07-19T04:22:51;5.37;;;2.60;;
12774;SDS011;6451;42.630;23.382;2022-07-19T04:25:18;4.85;;;2.50;;
12774;SDS011;6451;42.630;23.382;2022-07-19T04:27:44;5.50;;;2.40;;
12774;SDS011;6451;42.630;23.382;2022-07-19T04:30:13;6.88;;;2.60;;
12774;SDS011;6451;42.630;23.382;2022-07-19T04:32:41;4.50;;;2.63;;
12774;SDS011;6451;42.630;23.382;2022-07-19T04:35:08;2.90;;;2.47;;
12774;SDS011;6451;42.630;23.382;2022-07-19T04:37:35;3.03;;;2.30;;
12774;SDS011;6451;42.630;23.382;2022-07-19T04:40:02;5.88;;;2.67;;
12774;SDS011;6451;42.630;23.382;2022-07-19T04:42:30;5.63;;;2.70;;
12774;SDS011;6451;42.630;23.382;2022-07-19T04:44:57;4.78;;;2.53;;
12774;SDS011;6451;42.630;23.382;2022-07-19T04:47:25;6.30;;;2.65;;
12774;SDS011;6451;42.630;23.382;2022-07-19T04:49:52;3.80;;;2.40;;
12774;SDS011;6451;42.630;23.382;2022-07-19T04:52:19;3.30;;;2.67;;
12774;SDS011;6451;42.630;23.382;2022-07-19T04:54:45;2.63;;;2.25;;
12774;SDS011;6451;42.630;23.382;2022-07-19T04:57:14;5.40;;;2.50;;
12774;SDS011;6451;42.630;23.382;2022-07-19T04:59:41;3.70;;;2.45;;
12774;SDS011;6451;42.630;23.382;2022-07-19T05:02:08;3.67;;;2.35;;
12774;SDS011;6451;42.630;23.382;2022-07-19T05:04:36;4.65;;;2.30;;
12774;SDS011;6451;42.630;23.382;2022-07-19T05:07:04;5.90;;;2.80;;
12774;SDS011;6451;42.630;23.382;2022-07-19T05:09:31;4.13;;;2.22;;
12774;SDS011;6451;42.630;23.382;2022-07-19T05:11:58;3.70;;;2.63;;
12774;SDS011;6451;42.630;23.382;2022-07-19T05:14:25;6.80;;;2.60;;
12774;SDS011;6451;42.630;23.382;2022-07-19T05:16:52;5.18;;;2.72;;
12774;SDS011;6451;42.630;23.382;2022-07-19T05:19:19;4.57;;;3.45;;
12774;SDS011;6451;42.630;23.382;2022-07-19T05:21:47;6.28;;;3.33;;
12774;SDS011;6451;42.630;23.382;2022-07-19T05:24:14;6.50;;;3.63;;
12774;SDS011;6451;42.630;23.382;2022-07-19T05:26:41;5.97;;;2.55;;
12774;SDS011;6451;42.630;23.382;2022-07-19T05:29:08;6.55;;;3.30;;
12774;SDS011;6451;42.630;23.382;2022-07-19T05:31:36;4.93;;;2.20;;
12774;SDS011;6451;42.630;23.382;2022-07-19T05:34:03;4.90;;;2.65;;
12774;SDS011;6451;42.630;23.382;2022-07-19T05:36:30;4.93;;;2.50;;
12774;SDS011;6451;42.630;23.382;2022-07-19T05:38:59;3.45;;;2.20;;
12774;SDS011;6451;42.630;23.382;2022-07-19T05:41:25;6.82;;;2.50;;
12774;SDS011;6451;42.630;23.382;2022-07-19T05:43:52;3.78;;;2.50;;
12774;SDS011;6451;42.630;23.382;2022-07-19T05:46:19;6.90;;;2.42;;
12774;SDS011;6451;42.630;23.382;2022-07-19T05:48:47;3.88;;;2.20;;
12774;SDS011;6451;42.630;23.382;2022-07-19T05:51:15;5.57;;;2.60;;
12774;SDS011;6451;42.630;23.382;2022-07-19T05:53:42;4.72;;;2.40;;
12774;SDS011;6451;42.630;23.382;2022-07-19T05:56:12;5.22;;;2.55;;
12774;SDS011;6451;42.630;23.382;2022-07-19T05:58:40;4.40;;;2.30;;
12774;SDS011;6451;42.630;23.382;2022-07-19T06:01:07;4.25;;;2.35;;
12774;SDS011;6451;42.630;23.382;2022-07-19T06:03:51;3.67;;;2.28;;
12774;SDS011;6451;42.630;23.382;2022-07-19T06:06:19;4.18;;;2.72;;
12774;SDS011;6451;42.630;23.382;2022-07-19T06:08:47;4.57;;;2.08;;
12774;SDS011;6451;42.630;23.382;2022-07-19T06:11:16;3.53;;;3.08;;
12774;SDS011;6451;42.630;23.382;2022-07-19T06:13:44;5.68;;;3.40;;
12774;SDS011;6451;42.630;23.382;2022-07-19T06:16:12;5.28;;;2.90;;
12774;SDS011;6451;42.630;23.382;2022-07-19T06:18:39;5.55;;;3.33;;
12774;SDS011;6451;42.630;23.382;2022-07-19T06:21:06;5.68;;;2.47;;
12774;SDS011;6451;42.630;23.382;2022-07-19T06:23:36;5.10;;;2.38;;
12774;SDS011;6451;42.630;23.382;2022-07-19T06:26:03;6.40;;;2.40;;
12774;SDS011;6451;42.630;23.382;2022-07-19T06:28:31;4.15;;;2.55;;
12774;SDS011;6451;42.630;23.382;2022-07-19T06:30:58;6.20;;;2.40;;
12774;SDS011;6451;42.630;23.382;2022-07-19T06:33:25;3.60;;;2.30;;
12774;SDS011;6451;42.630;23.382;2022-07-19T06:35:52;5.80;;;2.22;;
12774;SDS011;6451;42.630;23.382;2022-07-19T06:38:20;2.33;;;2.13;;
12774;SDS011;6451;42.630;23.382;2022-07-19T06:40:47;4.00;;;2.28;;
12774;SDS011;6451;42.630;23.382;2022-07-19T06:43:14;4.63;;;2.50;;
12774;SDS011;6451;42.630;23.382;2022-07-19T06:45:42;3.25;;;2.00;;
12774;SDS011;6451;42.630;23.382;2022-07-19T06:48:09;4.65;;;3.45;;
12774;SDS011;6451;42.630;23.382;2022-07-19T06:50:36;5.40;;;2.70;;
12774;SDS011;6451;42.630;23.382;2022-07-19T06:53:03;6.53;;;2.80;;
12774;SDS011;6451;42.630;23.382;2022-07-19T06:55:29;4.85;;;2.40;;
12774;SDS011;6451;42.630;23.382;2022-07-19T06:57:56;4.10;;;2.30;;
12774;SDS011;6451;42.630;23.382;2022-07-19T07:00:24;3.85;;;2.42;;
12774;SDS011;6451;42.630;23.382;2022-07-19T07:02:52;5.28;;;2.83;;
12774;SDS011;6451;42.630;23.382;2022-07-19T07:05:19;4.43;;;2.13;;
12774;SDS011;6451;42.630;23.382;2022-07-19T07:07:46;5.00;;;2.20;;
12774;SDS011;6451;42.630;23.382;2022-07-19T07:10:16;4.65;;;2.40;;
12774;SDS011;6451;42.630;23.382;2022-07-19T07:12:44;8.13;;;2.50;;
12774;SDS011;6451;42.630;23.382;2022-07-19T07:15:11;5.72;;;2.42;;
12774;SDS011;6451;42.630;23.382;2022-07-19T07:17:44;3.40;;;2.40;;
12774;SDS011;6451;42.630;23.382;2022-07-19T07:20:12;3.50;;;2.30;;
12774;SDS011;6451;42.630;23.382;2022-07-19T07:22:39;5.57;;;2.10;;
12774;SDS011;6451;42.630;23.382;2022-07-19T07:25:06;5.65;;;2.33;;
12774;SDS011;6451;42.630;23.382;2022-07-19T07:27:34;3.53;;;2.58;;
12774;SDS011;6451;42.630;23.382;2022-07-19T07:30:00;7.43;;;3.38;;
12774;SDS011;6451;42.630;23.382;2022-07-19T07:32:27;6.70;;;2.60;;
12774;SDS011;6451;42.630;23.382;2022-07-19T07:34:54;5.40;;;2.58;;
12774;SDS011;6451;42.630;23.382;2022-07-19T07:37:23;3.75;;;2.17;;
12774;SDS011;6451;42.630;23.382;2022-07-19T07:39:51;5.72;;;2.72;;
12774;SDS011;6451;42.630;23.382;2022-07-19T07:42:18;5.72;;;2.42;;
12774;SDS011;6451;42.630;23.382;2022-07-19T07:44:46;3.35;;;2.30;;
12774;SDS011;6451;42.630;23.382;2022-07-19T07:47:13;5.43;;;2.35;;
12774;SDS011;6451;42.630;23.382;2022-07-19T07:49:40;7.03;;;2.35;;
12774;SDS011;6451;42.630;23.382;2022-07-19T07:52:06;3.03;;;2.20;;
12774;SDS011;6451;42.630;23.382;2022-07-19T07:54:35;3.97;;;2.10;;
12774;SDS011;6451;42.630;23.382;2022-07-19T07:57:02;7.25;;;2.20;;
12774;SDS011;6451;42.630;23.382;2022-07-19T07:59:29;5.78;;;2.10;;
12774;SDS011;6451;42.630;23.382;2022-07-19T08:01:56;5.55;;;2.33;;
12774;SDS011;6451;42.630;23.382;2022-07-19T08:04:23;10.05;;;2.35;;
12774;SDS011;6451;42.630;23.382;2022-07-19T08:06:49;3.72;;;2.20;;
12774;SDS011;6451;42.630;23.382;2022-07-19T08:09:16;2.50;;;2.20;;
12774;SDS011;6451;42.630;23.382;2022-07-19T08:11:45;5.45;;;2.50;;
12774;SDS011;6451;42.630;23.382;2022-07-19T08:14:12;7.40;;;2.13;;
12774;SDS011;6451;42.630;23.382;2022-07-19T08:16:39;2.83;;;1.75;;
12774;SDS011;6451;42.630;23.382;2022-07-19T08:19:06;2.13;;;1.92;;
12774;SDS011;6451;42.630;23.382;2022-07-19T08:21:32;3.80;;;2.17;;
12774;SDS011;6451;42.630;23.382;2022-07-19T08:23:59;2.10;;;1.90;;
12774;SDS011;6451;42.630;23.382;2022-07-19T08:26:26;8.55;;;2.40;;
12774;SDS011;6451;42.630;23.382;2022-07-19T08:28:56;6.57;;;2.20;;
12774;SDS011;6451;42.630;23.382;2022-07-19T08:31:24;3.22;;;1.90;;
12774;SDS011;6451;42.630;23.382;2022-07-19T08:33:51;2.20;;;2.00;;
12774;SDS011;6451;42.630;23.382;2022-07-19T08:36:18;2.20;;;2.00;;
12774;SDS011;6451;42.630;23.382;2022-07-19T08:38:45;4.38;;;2.00;;
12774;SDS011;6451;42.630;23.382;2022-07-19T08:41:13;4.38;;;2.00;;
12774;SDS011;6451;42.630;23.382;2022-07-19T08:43:41;4.95;;;2.20;;
12774;SDS011;6451;42.630;23.382;2022-07-19T08:46:09;4.38;;;1.65;;
12774;SDS011;6451;42.630;23.382;2022-07-19T08:48:36;3.17;;;1.80;;
12774;SDS011;6451;42.630;23.382;2022-07-19T08:51:05;4.82;;;2.17;;
12774;SDS011;6451;42.630;23.382;2022-07-19T08:53:34;2.83;;;2.35;;
12774;SDS011;6451;42.630;23.382;2022-07-19T08:56:03;2.72;;;2.20;;
12774;SDS011;6451;42.630;23.382;2022-07-19T08:58:51;2.22;;;1.70;;
12774;SDS011;6451;42.630;23.382;2022-07-19T09:01:19;4.50;;;2.40;;
12774;SDS011;6451;42.630;23.382;2022-07-19T09:06:36;2.20;;;1.80;;
12774;SDS011;6451;42.630;23.382;2022-07-19T09:09:08;3.05;;;2.00;;
12774;SDS011;6451;42.630;23.382;2022-07-19T09:11:36;2.90;;;2.10;;
12774;SDS011;6451;42.630;23.382;2022-07-19T09:14:04;4.07;;;1.98;;
12774;SDS011;6451;42.630;23.382;2022-07-19T09:19:25;3.58;;;2.25;;
12774;SDS011;6451;42.630;23.382;2022-07-19T09:21:53;2.80;;;1.90;;
12774;SDS011;6451;42.630;23.382;2022-07-19T09:24:23;7.70;;;2.50;;
12774;SDS011;6451;42.630;23.382;2022-07-19T09:26:54;4.53;;;2.03;;
12774;SDS011;6451;42.630;23.382;2022-07-19T09:29:26;5.25;;;2.15;;
12774;SDS011;6451;42.630;23.382;2022-07-19T09:32:07;9.93;;;2.50;;
12774;SDS011;6451;42.630;23.382;2022-07-19T09:34:38;2.75;;;1.95;;
12774;SDS011;6451;42.630;23.382;2022-07-19T09:37:10;2.85;;;1.90;;
12774;SDS011;6451;42.630;23.382;2022-07-19T09:39:42;2.35;;;2.00;;
12774;SDS011;6451;42.630;23.382;2022-07-19T09:42:11;3.10;;;1.98;;
12774;SDS011;6451;42.630;23.382;2022-07-19T09:44:39;5.32;;;1.98;;
12774;SDS011;6451;42.630;23.382;2022-07-19T09:47:06;2.80;;;2.28;;
12774;SDS011;6451;42.630;23.382;2022-07-19T09:49:33;3.15;;;2.20;;
12774;SDS011;6451;42.630;23.382;2022-07-19T09:52:02;2.72;;;1.90;;
12774;SDS011;6451;42.630;23.382;2022-07-19T09:54:29;6.10;;;2.10;;
12774;SDS011;6451;42.630;23.382;2022-07-19T09:56:58;1.85;;;1.70;;
12774;SDS011;6451;42.630;23.382;2022-07-19T09:59:26;3.85;;;1.80;;
12774;SDS011;6451;42.630;23.382;2022-07-19T10:01:54;5.05;;;2.30;;
12774;SDS011;6451;42.630;23.382;2022-07-19T10:04:23;5.38;;;2.20;;
12774;SDS011;6451;42.630;23.382;2022-07-19T10:06:52;3.10;;;1.67;;
12774;SDS011;6451;42.630;23.382;2022-07-19T10:09:23;6.57;;;1.75;;
12774;SDS011;6451;42.630;23.382;2022-07-19T10:11:51;3.88;;;1.75;;
12774;SDS011;6451;42.630;23.382;2022-07-19T10:14:19;2.10;;;1.90;;
12774;SDS011;6451;42.630;23.382;2022-07-19T10:16:58;2.15;;;1.90;;
12774;SDS011;6451;42.630;23.382;2022-07-19T10:19:33;2.28;;;1.80;;
12774;SDS011;6451;42.630;23.382;2022-07-19T10:22:04;2.35;;;1.77;;
12774;SDS011;6451;42.630;23.382;2022-07-19T10:24:47;2.70;;;1.83;;
12774;SDS011;6451;42.630;23.382;2022-07-19T10:27:16;3.38;;;2.40;;
12774;SDS011;6451;42.630;23.382;2022-07-19T10:29:45;3.47;;;2.40;;
12774;SDS011;6451;42.630;23.382;2022-07-19T10:32:12;5.75;;;2.40;;
12774;SDS011;6451;42.630;23.382;2022-07-19T10:34:40;2.58;;;2.13;;
12774;SDS011;6451;42.630;23.382;2022-07-19T10:37:11;2.88;;;1.98;;
12774;SDS011;6451;42.630;23.382;2022-07-19T10:39:38;3.45;;;1.80;;
12774;SDS011;6451;42.630;23.382;2022-07-19T10:42:08;4.90;;;2.00;;
12774;SDS011;6451;42.630;23.382;2022-07-19T10:59:31;5.05;;;1.92;;
12774;SDS011;6451;42.630;23.382;2022-07-19T11:02:07;2.47;;;1.85;;
12774;SDS011;6451;42.630;23.382;2022-07-19T11:04:47;2.47;;;2.00;;
12774;SDS011;6451;42.630;23.382;2022-07-19T11:07:17;2.40;;;2.10;;
12774;SDS011;6451;42.630;23.382;2022-07-19T11:09:52;4.88;;;2.30;;
12774;SDS011;6451;42.630;23.382;2022-07-19T11:12:26;3.47;;;2.38;;
12774;SDS011;6451;42.630;23.382;2022-07-19T11:15:00;3.30;;;1.98;;
12774;SDS011;6451;42.630;23.382;2022-07-19T11:17:29;4.85;;;2.00;;
12774;SDS011;6451;42.630;23.382;2022-07-19T11:19:56;4.05;;;2.30;;
12774;SDS011;6451;42.630;23.382;2022-07-19T11:22:32;7.05;;;2.95;;
12774;SDS011;6451;42.630;23.382;2022-07-19T11:25:00;3.63;;;2.30;;
12774;SDS011;6451;42.630;23.382;2022-07-19T11:27:29;3.75;;;2.40;;
12774;SDS011;6451;42.630;23.382;2022-07-19T11:29:57;8.15;;;2.10;;
12774;SDS011;6451;42.630;23.382;2022-07-19T11:32:26;4.07;;;2.20;;
12774;SDS011;6451;42.630;23.382;2022-07-19T11:34:54;2.80;;;2.00;;
12774;SDS011;6451;42.630;23.382;2022-07-19T11:37:22;2.45;;;2.15;;
12774;SDS011;6451;42.630;23.382;2022-07-19T11:39:51;2.97;;;2.20;;
12774;SDS011;6451;42.630;23.382;2022-07-19T11:42:26;3.28;;;2.10;;
12774;SDS011;6451;42.630;23.382;2022-07-19T11:44:54;2.38;;;2.17;;
12774;SDS011;6451;42.630;23.382;2022-07-19T11:47:22;5.50;;;2.10;;
12774;SDS011;6451;42.630;23.382;2022-07-19T11:49:51;3.28;;;2.03;;
12774;SDS011;6451;42.630;23.382;2022-07-19T11:52:18;3.67;;;2.10;;
12774;SDS011;6451;42.630;23.382;2022-07-19T11:54:57;3.17;;;2.22;;
12774;SDS011;6451;42.630;23.382;2022-07-19T11:57:25;6.40;;;5.80;;
12774;SDS011;6451;42.630;23.382;2022-07-19T11:59:52;2.90;;;2.10;;
12774;SDS011;6451;42.630;23.382;2022-07-19T12:02:19;2.30;;;2.05;;
12774;SDS011;6451;42.630;23.382;2022-07-19T12:04:47;2.28;;;1.80;;
12774;SDS011;6451;42.630;23.382;2022-07-19T12:07:15;3.53;;;2.00;;
12774;SDS011;6451;42.630;23.382;2022-07-19T12:09:43;2.50;;;2.25;;
12774;SDS011;6451;42.630;23.382;2022-07-19T12:12:13;2.78;;;2.20;;
12774;SDS011;6451;42.630;23.382;2022-07-19T12:14:41;5.07;;;1.98;;
12774;SDS011;6451;42.630;23.382;2022-07-19T12:17:11;4.03;;;1.90;;
12774;SDS011;6451;42.630;23.382;2022-07-19T12:19:39;5.60;;;2.33;;
12774;SDS011;6451;42.630;23.382;2022-07-19T12:24:53;2.00;;;1.80;;
12774;SDS011;6451;42.630;23.382;2022-07-19T12:27:20;4.43;;;2.10;;
12774;SDS011;6451;42.630;23.382;2022-07-19T12:29:53;3.65;;;2.10;;
12774;SDS011;6451;42.630;23.382;2022-07-19T12:32:26;3.60;;;1.95;;
12774;SDS011;6451;42.630;23.382;2022-07-19T12:34:55;3.25;;;1.88;;
12774;SDS011;6451;42.630;23.382;2022-07-19T12:37:25;4.93;;;2.10;;
12774;SDS011;6451;42.630;23.382;2022-07-19T12:39:58;2.42;;;1.80;;
12774;SDS011;6451;42.630;23.382;2022-07-19T12:42:34;3.55;;;2.33;;
12774;SDS011;6451;42.630;23.382;2022-07-19T12:45:03;2.78;;;1.90;;
12774;SDS011;6451;42.630;23.382;2022-07-19T12:47:31;3.40;;;2.25;;
12774;SDS011;6451;42.630;23.382;2022-07-19T12:49:58;2.10;;;1.88;;
12774;SDS011;6451;42.630;23.382;2022-07-19T12:52:27;3.35;;;2.00;;
12774;SDS011;6451;42.630;23.382;2022-07-19T12:54:53;3.35;;;2.10;;
12774;SDS011;6451;42.630;23.382;2022-07-19T12:57:20;3.60;;;2.10;;
12774;SDS011;6451;42.630;23.382;2022-07-19T12:59:47;3.55;;;2.05;;
12774;SDS011;6451;42.630;23.382;2022-07-19T13:02:15;3.13;;;2.00;;
12774;SDS011;6451;42.630;23.382;2022-07-19T13:04:43;7.57;;;2.10;;
12774;SDS011;6451;42.630;23.382;2022-07-19T13:07:11;2.38;;;2.08;;
12774;SDS011;6451;42.630;23.382;2022-07-19T13:09:40;2.50;;;2.10;;
12774;SDS011;6451;42.630;23.382;2022-07-19T13:12:07;4.07;;;1.95;;
12774;SDS011;6451;42.630;23.382;2022-07-19T13:14:35;2.08;;;1.88;;
12774;SDS011;6451;42.630;23.382;2022-07-19T13:17:02;4.00;;;2.00;;
12774;SDS011;6451;42.630;23.382;2022-07-19T13:19:30;4.07;;;1.80;;
12774;SDS011;6451;42.630;23.382;2022-07-19T13:21:57;2.92;;;1.90;;
12774;SDS011;6451;42.630;23.382;2022-07-19T13:24:24;3.75;;;1.90;;
12774;SDS011;6451;42.630;23.382;2022-07-19T13:26:54;2.80;;;1.80;;
12774;SDS011;6451;42.630;23.382;2022-07-19T13:29:21;4.90;;;1.90;;
12774;SDS011;6451;42.630;23.382;2022-07-19T13:31:48;2.58;;;1.80;;
12774;SDS011;6451;42.630;23.382;2022-07-19T13:34:15;4.80;;;1.88;;
12774;SDS011;6451;42.630;23.382;2022-07-19T13:36:42;2.60;;;2.05;;
12774;SDS011;6451;42.630;23.382;2022-07-19T13:39:09;2.65;;;1.88;;
12774;SDS011;6451;42.630;23.382;2022-07-19T13:41:37;5.53;;;5.00;;
12774;SDS011;6451;42.630;23.382;2022-07-19T13:44:07;5.00;;;4.15;;
12774;SDS011;6451;42.630;23.382;2022-07-19T13:46:34;2.42;;;1.95;;
12774;SDS011;6451;42.630;23.382;2022-07-19T13:49:02;3.40;;;1.67;;
12774;SDS011;6451;42.630;23.382;2022-07-19T13:51:29;3.00;;;2.70;;
12774;SDS011;6451;42.630;23.382;2022-07-19T13:53:56;2.47;;;1.95;;
12774;SDS011;6451;42.630;23.382;2022-07-19T13:56:23;4.25;;;2.00;;
12774;SDS011;6451;42.630;23.382;2022-07-19T13:58:51;6.70;;;1.90;;
12774;SDS011;6451;42.630;23.382;2022-07-19T14:01:19;1.85;;;1.60;;
12774;SDS011;6451;42.630;23.382;2022-07-19T14:03:46;2.38;;;1.92;;
12774;SDS011;6451;42.630;23.382;2022-07-19T14:06:14;3.45;;;1.80;;
12774;SDS011;6451;42.630;23.382;2022-07-19T14:08:41;3.28;;;1.85;;
12774;SDS011;6451;42.630;23.382;2022-07-19T14:11:09;2.60;;;1.60;;
12774;SDS011;6451;42.630;23.382;2022-07-19T14:13:36;4.25;;;1.70;;
12774;SDS011;6451;42.630;23.382;2022-07-19T14:16:03;2.20;;;1.70;;
12774;SDS011;6451;42.630;23.382;2022-07-19T14:18:32;2.00;;;1.60;;
12774;SDS011;6451;42.630;23.382;2022-07-19T14:20:59;2.33;;;1.50;;
12774;SDS011;6451;42.630;23.382;2022-07-19T14:23:26;3.83;;;1.63;;
12774;SDS011;6451;42.630;23.382;2022-07-19T14:25:54;2.40;;;1.65;;
12774;SDS011;6451;42.630;23.382;2022-07-19T14:28:20;2.55;;;1.80;;
12774;SDS011;6451;42.630;23.382;2022-07-19T14:30:47;2.70;;;1.60;;
12774;SDS011;6451;42.630;23.382;2022-07-19T14:33:14;1.52;;;1.40;;
12774;SDS011;6451;42.630;23.382;2022-07-19T14:35:43;2.25;;;1.60;;
12774;SDS011;6451;42.630;23.382;2022-07-19T14:38:10;4.95;;;1.73;;
12774;SDS011;6451;42.630;23.382;2022-07-19T14:40:37;3.17;;;1.60;;
12774;SDS011;6451;42.630;23.382;2022-07-19T14:43:03;5.05;;;1.70;;
12774;SDS011;6451;42.630;23.382;2022-07-19T14:45:30;1.58;;;1.40;;
12774;SDS011;6451;42.630;23.382;2022-07-19T14:47:57;2.55;;;1.48;;
12774;SDS011;6451;42.630;23.382;2022-07-19T14:50:25;1.77;;;1.63;;
12774;SDS011;6451;42.630;23.382;2022-07-19T14:52:53;2.80;;;1.77;;
12774;SDS011;6451;42.630;23.382;2022-07-19T14:55:20;3.15;;;2.85;;
12774;SDS011;6451;42.630;23.382;2022-07-19T14:57:47;2.13;;;1.88;;
12774;SDS011;6451;42.630;23.382;2022-07-19T15:00:14;4.50;;;1.90;;
12774;SDS011;6451;42.630;23.382;2022-07-19T15:02:41;2.55;;;1.55;;
12774;SDS011;6451;42.630;23.382;2022-07-19T15:05:08;1.98;;;1.67;;
12774;SDS011;6451;42.630;23.382;2022-07-19T15:07:35;2.42;;;1.50;;
12774;SDS011;6451;42.630;23.382;2022-07-19T15:10:04;2.60;;;1.60;;
12774;SDS011;6451;42.630;23.382;2022-07-19T15:12:32;2.65;;;2.45;;
12774;SDS011;6451;42.630;23.382;2022-07-19T15:14:59;4.78;;;2.67;;
12774;SDS011;6451;42.630;23.382;2022-07-19T15:17:26;3.08;;;1.80;;